Climatologie pour Saint-Brevin les Pins
Jour • Résumé pour avril 22, 2017 Système :  Métrique    Anglais   Mixte
« - 1 jour
+ 1 jour »
Jour Semaine Mois Année Personnalisé
  Maximum : Minimum : Moyenne :
Température sous abri : 21.1 °C 4.2 °C 13.1 °C
Point de rosée : 10.0 °C 2.3 °C 6.7 °C
Humidité : 95 % 43 % 68 %
Vitesse du vent : 25.7 km/h 0.0 km/h 6.4 km/h
Rafale : 27.4 km/h - -
Direction :- - ENE
Pression : 1028.0 hPa 1022.9 hPa -
Précipitations : 0.0 mm    
Historical Graphs
 
 
Tableau de données pour avril 22, 2017
Heure Tempé Pt rosée Pression Vent Vitesse Rafale Humidité Taux pluie (/hr) Soleil
00:00 8.0 °C 3.1 °C 1028.0 hPa ENE 3.2 km/h 8.0 km/h 71 % 0.0 mm 0 W/m2
00:10 8.9 °C 2.3 °C 1028.0 hPa ENE 3.2 km/h 6.4 km/h 63 % 0.0 mm 0 W/m2
00:15 8.8 °C 2.4 °C 1028.0 hPa ENE 1.6 km/h 4.8 km/h 64 % 0.0 mm 0 W/m2
00:20 8.4 °C 2.5 °C 1028.0 hPa NNE 6.4 km/h 6.4 km/h 66 % 0.0 mm 0 W/m2
00:25 8.1 °C 2.7 °C 1028.0 hPa NE 6.4 km/h 12.9 km/h 69 % 0.0 mm 0 W/m2
00:30 8.2 °C 2.6 °C 1028.0 hPa NE 3.2 km/h 12.9 km/h 68 % 0.0 mm 0 W/m2
00:35 8.5 °C 2.5 °C 1028.0 hPa NE 6.4 km/h 11.3 km/h 66 % 0.0 mm 0 W/m2
00:40 8.7 °C 2.4 °C 1028.0 hPa NE 4.8 km/h 11.3 km/h 65 % 0.0 mm 0 W/m2
00:45 8.9 °C 2.7 °C 1028.0 hPa East 1.6 km/h 11.3 km/h 65 % 0.0 mm 0 W/m2
00:50 9.1 °C 2.9 °C 1028.0 hPa NE 4.8 km/h 12.9 km/h 65 % 0.0 mm 0 W/m2
00:55 8.9 °C 3.1 °C 1028.0 hPa ENE 1.6 km/h 14.5 km/h 67 % 0.0 mm 0 W/m2
01:00 8.9 °C 3.3 °C 1028.0 hPa NE 1.6 km/h 14.5 km/h 68 % 0.0 mm 0 W/m2
01:05 8.7 °C 3.3 °C 1028.0 hPa NE 8.0 km/h 8.0 km/h 69 % 0.0 mm 0 W/m2
01:10 8.6 °C 3.4 °C 1028.0 hPa Calm   8.0 km/h 70 % 0.0 mm 0 W/m2
01:15 8.3 °C 3.5 °C 1028.0 hPa NE 6.4 km/h 12.9 km/h 72 % 0.0 mm 0 W/m2
01:20 8.3 °C 3.6 °C 1028.0 hPa NE 1.6 km/h 12.9 km/h 72 % 0.0 mm 0 W/m2
01:25 8.2 °C 3.7 °C 1028.0 hPa NNE 1.6 km/h 9.7 km/h 73 % 0.0 mm 0 W/m2
01:30 8.1 °C 3.5 °C 1028.0 hPa NNE 1.6 km/h 9.7 km/h 73 % 0.0 mm 0 W/m2
01:35 7.9 °C 3.5 °C 1028.0 hPa Calm   8.0 km/h 74 % 0.0 mm 0 W/m2
01:40 7.4 °C 3.3 °C 1028.0 hPa Calm   8.0 km/h 75 % 0.0 mm 0 W/m2
01:45 7.2 °C 3.4 °C 1028.0 hPa North 1.6 km/h 4.8 km/h 77 % 0.0 mm 0 W/m2
01:50 7.1 °C 3.7 °C 1028.0 hPa North 1.6 km/h 6.4 km/h 79 % 0.0 mm 0 W/m2
01:55 7.1 °C 3.8 °C 1028.0 hPa North 3.2 km/h 6.4 km/h 80 % 0.0 mm 0 W/m2
02:00 7.1 °C 3.7 °C 1028.0 hPa NE 4.8 km/h 8.0 km/h 79 % 0.0 mm 0 W/m2
02:05 7.2 °C 3.8 °C 1028.0 hPa NNE 3.2 km/h 8.0 km/h 79 % 0.0 mm 0 W/m2
02:10 7.1 °C 3.9 °C 1028.0 hPa North 3.2 km/h 11.3 km/h 80 % 0.0 mm 0 W/m2
02:15 7.2 °C 3.9 °C 1028.0 hPa NE 1.6 km/h 11.3 km/h 80 % 0.0 mm 0 W/m2
02:20 7.3 °C 4.1 °C 1028.0 hPa North 1.6 km/h 11.3 km/h 80 % 0.0 mm 0 W/m2
02:25 7.4 °C 4.2 °C 1028.0 hPa NE 4.8 km/h 8.0 km/h 80 % 0.0 mm 0 W/m2
02:30 7.4 °C 4.2 °C 1027.7 hPa Calm   8.0 km/h 80 % 0.0 mm 0 W/m2
02:35 7.5 °C 4.3 °C 1027.7 hPa Calm   8.0 km/h 80 % 0.0 mm 0 W/m2
02:40 7.4 °C 4.2 °C 1027.7 hPa Calm   6.4 km/h 80 % 0.0 mm 0 W/m2
02:45 7.3 °C 4.2 °C 1027.7 hPa ENE 1.6 km/h 8.0 km/h 81 % 0.0 mm 0 W/m2
02:50 7.3 °C 4.3 °C 1027.7 hPa Calm   8.0 km/h 81 % 0.0 mm 0 W/m2
02:55 7.3 °C 4.2 °C 1027.7 hPa Calm   4.8 km/h 81 % 0.0 mm 0 W/m2
03:00 6.8 °C 3.9 °C 1027.3 hPa ENE 1.6 km/h 4.8 km/h 82 % 0.0 mm 0 W/m2
03:05 6.4 °C 3.9 °C 1027.3 hPa Calm   8.0 km/h 84 % 0.0 mm 0 W/m2
03:10 6.3 °C 3.9 °C 1027.3 hPa Calm   8.0 km/h 85 % 0.0 mm 0 W/m2
03:15 6.2 °C 4.0 °C 1027.3 hPa East 1.6 km/h 3.2 km/h 86 % 0.0 mm 0 W/m2
03:20 6.0 °C 3.8 °C 1027.3 hPa Calm   3.2 km/h 86 % 0.0 mm 0 W/m2
03:25 5.8 °C 3.6 °C 1027.3 hPa Calm   1.6 km/h 86 % 0.0 mm 0 W/m2
03:30 5.6 °C 3.6 °C 1027.3 hPa Calm   3.2 km/h 87 % 0.0 mm 0 W/m2
03:35 5.6 °C 3.7 °C 1027.3 hPa Calm   4.8 km/h 88 % 0.0 mm 0 W/m2
03:40 5.5 °C 3.7 °C 1027.0 hPa ENE 3.2 km/h 4.8 km/h 88 % 0.0 mm 0 W/m2
03:45 5.6 °C 3.9 °C 1027.0 hPa ENE 3.2 km/h 6.4 km/h 89 % 0.0 mm 0 W/m2
03:50 5.7 °C 4.0 °C 1027.0 hPa NE 4.8 km/h 6.4 km/h 89 % 0.0 mm 0 W/m2
03:55 5.9 °C 4.3 °C 1027.0 hPa ENE 4.8 km/h 8.0 km/h 89 % 0.0 mm 0 W/m2
04:00 5.7 °C 3.9 °C 1027.0 hPa NE 1.6 km/h 8.0 km/h 88 % 0.0 mm 0 W/m2
04:05 5.8 °C 4.2 °C 1027.0 hPa NE 1.6 km/h 9.7 km/h 89 % 0.0 mm 0 W/m2
04:10 6.1 °C 4.4 °C 1027.0 hPa Calm   11.3 km/h 89 % 0.0 mm 0 W/m2
04:15 5.9 °C 4.3 °C 1027.0 hPa NE 3.2 km/h 11.3 km/h 89 % 0.0 mm 0 W/m2
04:20 5.8 °C 4.1 °C 1027.0 hPa ENE 1.6 km/h 8.0 km/h 89 % 0.0 mm 0 W/m2
04:25 5.7 °C 4.2 °C 1027.0 hPa NNE 4.8 km/h 9.7 km/h 90 % 0.0 mm 0 W/m2
04:30 5.6 °C 3.9 °C 1027.0 hPa NE 4.8 km/h 9.7 km/h 89 % 0.0 mm 0 W/m2
04:35 5.6 °C 4.1 °C 1027.0 hPa NE 3.2 km/h 8.0 km/h 90 % 0.0 mm 0 W/m2
04:40 5.8 °C 4.3 °C 1027.0 hPa ENE 8.0 km/h 8.0 km/h 90 % 0.0 mm 0 W/m2
04:45 5.9 °C 4.4 °C 1027.0 hPa ENE 4.8 km/h 14.5 km/h 90 % 0.0 mm 0 W/m2
04:50 6.2 °C 4.6 °C 1027.0 hPa ENE 3.2 km/h 14.5 km/h 90 % 0.0 mm 0 W/m2
04:55 6.2 °C 4.5 °C 1027.0 hPa NE 3.2 km/h 11.3 km/h 89 % 0.0 mm 0 W/m2
05:00 6.1 °C 4.4 °C 1027.0 hPa NE 3.2 km/h 11.3 km/h 89 % 0.0 mm 0 W/m2
05:05 5.9 °C 4.2 °C 1027.0 hPa NNE 3.2 km/h 9.7 km/h 89 % 0.0 mm 0 W/m2
05:15 5.3 °C 3.8 °C 1026.6 hPa Calm   8.0 km/h 90 % 0.0 mm 0 W/m2
05:20 5.2 °C 3.7 °C 1026.6 hPa Calm   6.4 km/h 90 % 0.0 mm 0 W/m2
05:25 5.0 °C 3.7 °C 1026.6 hPa Calm   4.8 km/h 91 % 0.0 mm 0 W/m2
05:30 4.9 °C 3.5 °C 1026.6 hPa Calm   4.8 km/h 91 % 0.0 mm 0 W/m2
05:35 4.8 °C 3.5 °C 1026.6 hPa Calm   3.2 km/h 91 % 0.0 mm 0 W/m2
05:40 4.6 °C 3.2 °C 1026.6 hPa NE 3.2 km/h 6.4 km/h 91 % 0.0 mm 0 W/m2
05:45 4.4 °C 3.3 °C 1026.6 hPa NE 1.6 km/h 6.4 km/h 92 % 0.0 mm 0 W/m2
05:50 4.5 °C 3.5 °C 1026.6 hPa Calm   6.4 km/h 93 % 0.0 mm 0 W/m2
05:55 4.4 °C 3.4 °C 1026.6 hPa ENE 1.6 km/h 6.4 km/h 93 % 0.0 mm 0 W/m2
06:00 4.6 °C 3.5 °C 1026.3 hPa ENE 3.2 km/h 8.0 km/h 93 % 0.0 mm 0 W/m2
06:05 4.7 °C 3.7 °C 1026.6 hPa ENE 3.2 km/h 9.7 km/h 93 % 0.0 mm 0 W/m2
06:10 4.8 °C 3.7 °C 1026.6 hPa NE 3.2 km/h 9.7 km/h 93 % 0.0 mm 0 W/m2
06:15 4.7 °C 3.7 °C 1026.6 hPa NE 1.6 km/h 8.0 km/h 93 % 0.0 mm 0 W/m2
06:20 4.7 °C 3.7 °C 1026.6 hPa Calm   4.8 km/h 93 % 0.0 mm 0 W/m2
06:25 4.4 °C 3.4 °C 1026.6 hPa Calm   6.4 km/h 93 % 0.0 mm 0 W/m2
06:30 4.4 °C 3.4 °C 1026.6 hPa Calm   6.4 km/h 93 % 0.0 mm 0 W/m2
06:35 4.4 °C 3.4 °C 1026.6 hPa NE 1.6 km/h 6.4 km/h 93 % 0.0 mm 0 W/m2
06:50 4.3 °C 3.3 °C 1026.6 hPa NNE 1.6 km/h 8.0 km/h 93 % 0.0 mm 0 W/m2
06:55 4.2 °C 3.3 °C 1027.0 hPa NNE 3.2 km/h 8.0 km/h 94 % 0.0 mm 0 W/m2
07:00 4.2 °C 3.3 °C 1027.0 hPa Calm   4.8 km/h 94 % 0.0 mm 0 W/m2
07:05 4.2 °C 3.3 °C 1027.0 hPa NE 4.8 km/h 8.0 km/h 94 % 0.0 mm 0 W/m2
07:10 4.2 °C 3.3 °C 1026.6 hPa NNE 3.2 km/h 8.0 km/h 94 % 0.0 mm 5 W/m2
07:15 4.5 °C 3.8 °C 1026.6 hPa NNE 1.6 km/h 8.0 km/h 95 % 0.0 mm 7 W/m2
07:20 4.5 °C 3.6 °C 1027.0 hPa NNE 6.4 km/h 8.0 km/h 94 % 0.0 mm 11 W/m2
07:25 4.6 °C 3.7 °C 1026.6 hPa Calm   8.0 km/h 94 % 0.0 mm 14 W/m2
07:30 4.7 °C 3.8 °C 1027.0 hPa NE 6.4 km/h 9.7 km/h 94 % 0.0 mm 18 W/m2
07:35 4.8 °C 3.9 °C 1027.0 hPa North 3.2 km/h 9.7 km/h 94 % 0.0 mm 21 W/m2
07:40 4.8 °C 3.9 °C 1027.0 hPa Calm   6.4 km/h 94 % 0.0 mm 25 W/m2
07:45 4.8 °C 3.9 °C 1027.0 hPa Calm   4.8 km/h 94 % 0.0 mm 26 W/m2
07:50 4.7 °C 3.8 °C 1027.0 hPa North 3.2 km/h 8.0 km/h 94 % 0.0 mm 28 W/m2
07:55 4.9 °C 4.0 °C 1027.0 hPa North 4.8 km/h 9.7 km/h 94 % 0.0 mm 33 W/m2
08:00 5.2 °C 4.3 °C 1027.3 hPa NE 3.2 km/h 9.7 km/h 94 % 0.0 mm 35 W/m2
08:05 5.4 °C 4.6 °C 1027.3 hPa NE 4.8 km/h 9.7 km/h 94 % 0.0 mm 39 W/m2
08:10 5.7 °C 4.8 °C 1027.3 hPa NNE 6.4 km/h 9.7 km/h 94 % 0.0 mm 42 W/m2
08:15 5.9 °C 5.0 °C 1027.3 hPa NNE 1.6 km/h 9.7 km/h 94 % 0.0 mm 46 W/m2
08:20 6.2 °C 5.3 °C 1027.3 hPa Calm   9.7 km/h 94 % 0.0 mm 47 W/m2
08:25 6.4 °C 5.4 °C 1027.3 hPa NE 3.2 km/h 9.7 km/h 93 % 0.0 mm 125 W/m2
08:30 6.7 °C 5.7 °C 1027.3 hPa NE 4.8 km/h 11.3 km/h 93 % 0.0 mm 144 W/m2
08:35 6.9 °C 5.7 °C 1027.3 hPa Calm   11.3 km/h 92 % 0.0 mm 165 W/m2
08:40 7.2 °C 6.0 °C 1027.3 hPa NNE 1.6 km/h 11.3 km/h 92 % 0.0 mm 195 W/m2
08:45 7.4 °C 6.1 °C 1027.3 hPa NNE 8.0 km/h 11.3 km/h 91 % 0.0 mm 211 W/m2
08:50 7.7 °C 6.2 °C 1027.3 hPa NE 4.8 km/h 14.5 km/h 90 % 0.0 mm 221 W/m2
08:55 7.9 °C 6.2 °C 1027.3 hPa ENE 1.6 km/h 14.5 km/h 89 % 0.0 mm 207 W/m2
09:00 8.2 °C 6.4 °C 1027.3 hPa NE 4.8 km/h 12.9 km/h 88 % 0.0 mm 265 W/m2
09:05 8.5 °C 6.5 °C 1027.3 hPa Calm   16.1 km/h 87 % 0.0 mm 274 W/m2
09:10 8.8 °C 6.7 °C 1027.3 hPa ENE 11.3 km/h 16.1 km/h 87 % 0.0 mm 209 W/m2
09:15 9.1 °C 6.7 °C 1027.3 hPa East 9.7 km/h 14.5 km/h 85 % 0.0 mm 299 W/m2
09:20 9.4 °C 6.9 °C 1027.3 hPa East 16.1 km/h 16.1 km/h 84 % 0.0 mm 322 W/m2
09:30 10.1 °C 7.1 °C 1027.3 hPa NE 6.4 km/h 16.1 km/h 82 % 0.0 mm 352 W/m2
09:35 10.3 °C 7.2 °C 1027.3 hPa ENE 3.2 km/h 11.3 km/h 81 % 0.0 mm 367 W/m2
09:40 10.6 °C 7.3 °C 1027.3 hPa ENE 8.0 km/h 17.7 km/h 80 % 0.0 mm 385 W/m2
09:45 10.9 °C 7.6 °C 1027.3 hPa ENE 4.8 km/h 17.7 km/h 80 % 0.0 mm 404 W/m2
09:50 11.1 °C 7.4 °C 1027.3 hPa ENE 11.3 km/h 16.1 km/h 78 % 0.0 mm 404 W/m2
09:55 11.2 °C 7.5 °C 1027.3 hPa ENE 6.4 km/h 14.5 km/h 78 % 0.0 mm 401 W/m2
10:00 11.3 °C 7.4 °C 1027.3 hPa East 14.5 km/h 16.1 km/h 77 % 0.0 mm 431 W/m2
10:05 11.8 °C 7.7 °C 1027.0 hPa NE 3.2 km/h 16.1 km/h 76 % 0.0 mm 439 W/m2
10:10 12.2 °C 7.9 °C 1027.0 hPa NE 9.7 km/h 14.5 km/h 75 % 0.0 mm 431 W/m2
10:15 12.3 °C 7.8 °C 1027.0 hPa NE 3.2 km/h 14.5 km/h 74 % 0.0 mm 496 W/m2
10:20 12.8 °C 8.3 °C 1027.0 hPa ENE 3.2 km/h 14.5 km/h 74 % 0.0 mm 512 W/m2
10:25 13.2 °C 8.2 °C 1027.0 hPa NE 1.6 km/h 14.5 km/h 72 % 0.0 mm 476 W/m2
10:30 13.3 °C 8.3 °C 1027.0 hPa NE 9.7 km/h 12.9 km/h 72 % 0.0 mm 531 W/m2
10:35 13.6 °C 8.0 °C 1027.0 hPa East 6.4 km/h 16.1 km/h 69 % 0.0 mm 473 W/m2
10:40 13.7 °C 7.9 °C 1027.0 hPa ENE 6.4 km/h 16.1 km/h 68 % 0.0 mm 541 W/m2
10:45 13.9 °C 7.9 °C 1027.0 hPa ESE 8.0 km/h 16.1 km/h 67 % 0.0 mm 575 W/m2
10:50 14.3 °C 8.1 °C 1027.0 hPa East 3.2 km/h 14.5 km/h 66 % 0.0 mm 591 W/m2
10:55 14.8 °C 8.7 °C 1027.0 hPa Calm   16.1 km/h 67 % 0.0 mm 591 W/m2
11:00 15.2 °C 8.2 °C 1027.0 hPa ESE 11.3 km/h 16.1 km/h 63 % 0.0 mm 580 W/m2
11:05 15.2 °C 8.5 °C 1027.0 hPa ENE 1.6 km/h 16.1 km/h 64 % 0.0 mm 598 W/m2
11:10 15.6 °C 8.8 °C 1027.0 hPa ENE 11.3 km/h 14.5 km/h 64 % 0.0 mm 619 W/m2
11:15 15.7 °C 8.5 °C 1027.0 hPa East 4.8 km/h 14.5 km/h 62 % 0.0 mm 605 W/m2
11:20 15.9 °C 8.9 °C 1027.0 hPa East 3.2 km/h 12.9 km/h 63 % 0.0 mm 645 W/m2
11:25 15.8 °C 8.6 °C 1027.0 hPa NE 4.8 km/h 16.1 km/h 62 % 0.0 mm 631 W/m2
11:30 16.3 °C 8.2 °C 1027.0 hPa ESE 3.2 km/h 16.1 km/h 59 % 0.0 mm 661 W/m2
11:35 16.6 °C 8.5 °C 1027.0 hPa ENE 20.9 km/h 20.9 km/h 59 % 0.0 mm 656 W/m2
11:40 16.7 °C 8.4 °C 1027.0 hPa ENE 6.4 km/h 20.9 km/h 58 % 0.0 mm 673 W/m2
11:45 16.8 °C 8.2 °C 1026.6 hPa East 14.5 km/h 20.9 km/h 57 % 0.0 mm 707 W/m2
11:50 16.9 °C 8.1 °C 1027.0 hPa ENE 11.3 km/h 19.3 km/h 56 % 0.0 mm 708 W/m2
11:55 17.1 °C 8.3 °C 1026.6 hPa ESE 8.0 km/h 19.3 km/h 56 % 0.0 mm 689 W/m2
12:00 17.4 °C 8.3 °C 1026.6 hPa ENE 8.0 km/h 20.9 km/h 55 % 0.0 mm 715 W/m2
12:05 17.7 °C 7.7 °C 1026.6 hPa East 16.1 km/h 20.9 km/h 52 % 0.0 mm 737 W/m2
12:10 17.8 °C 8.4 °C 1026.6 hPa ENE 1.6 km/h 19.3 km/h 54 % 0.0 mm 756 W/m2
12:15 17.9 °C 8.5 °C 1026.6 hPa ENE 8.0 km/h 19.3 km/h 54 % 0.0 mm 766 W/m2
12:20 18.0 °C 8.0 °C 1026.6 hPa Calm   19.3 km/h 52 % 0.0 mm 751 W/m2
12:25 18.2 °C 7.3 °C 1026.6 hPa ENE 6.4 km/h 19.3 km/h 49 % 0.0 mm 765 W/m2
12:35 18.9 °C 9.4 °C 1026.3 hPa NE 11.3 km/h 17.7 km/h 54 % 0.0 mm 763 W/m2
12:40 18.7 °C 8.1 °C 1026.3 hPa East 14.5 km/h 22.5 km/h 50 % 0.0 mm 788 W/m2
12:45 18.7 °C 7.2 °C 1026.3 hPa ESE 8.0 km/h 22.5 km/h 47 % 0.0 mm 798 W/m2
12:50 18.9 °C 8.3 °C 1026.3 hPa NE 1.6 km/h 22.5 km/h 50 % 0.0 mm 793 W/m2
12:55 18.9 °C 7.4 °C 1026.0 hPa NNE 14.5 km/h 22.5 km/h 47 % 0.0 mm 810 W/m2
13:00 19.3 °C 7.4 °C 1026.0 hPa East 19.3 km/h 22.5 km/h 46 % 0.0 mm 796 W/m2
13:05 19.1 °C 7.2 °C 1026.0 hPa ENE 14.5 km/h 22.5 km/h 46 % 0.0 mm 809 W/m2
13:10 18.9 °C 6.4 °C 1026.0 hPa ESE 14.5 km/h 22.5 km/h 44 % 0.0 mm 819 W/m2
13:15 19.3 °C 7.7 °C 1026.0 hPa ENE 19.3 km/h 20.9 km/h 47 % 0.0 mm 812 W/m2
13:20 19.3 °C 7.4 °C 1026.0 hPa East 9.7 km/h 22.5 km/h 46 % 0.0 mm 816 W/m2
13:25 19.7 °C 7.7 °C 1026.0 hPa Calm   22.5 km/h 46 % 0.0 mm 823 W/m2
13:30 19.8 °C 7.9 °C 1026.0 hPa NE 12.9 km/h 20.9 km/h 46 % 0.0 mm 816 W/m2
13:35 19.2 °C 7.6 °C 1026.0 hPa ENE 12.9 km/h 27.4 km/h 47 % 0.0 mm 800 W/m2
13:40 19.2 °C 7.6 °C 1026.0 hPa East 25.7 km/h 27.4 km/h 47 % 0.0 mm 800 W/m2
13:45 19.2 °C 7.6 °C 1025.6 hPa ENE 14.5 km/h 25.7 km/h 47 % 0.0 mm 798 W/m2
13:50 19.6 °C 7.6 °C 1025.6 hPa ENE 16.1 km/h 25.7 km/h 46 % 0.0 mm 817 W/m2
13:55 19.8 °C 8.8 °C 1025.6 hPa ESE 9.7 km/h 22.5 km/h 49 % 0.0 mm 833 W/m2
14:00 20.0 °C 8.0 °C 1025.6 hPa NE 6.4 km/h 22.5 km/h 46 % 0.0 mm 831 W/m2
14:05 19.7 °C 8.1 °C 1025.3 hPa NNE 11.3 km/h 20.9 km/h 47 % 0.0 mm 833 W/m2
14:10 20.3 °C 8.6 °C 1025.3 hPa ENE 11.3 km/h 20.9 km/h 47 % 0.0 mm 833 W/m2
14:15 20.3 °C 8.0 °C 1025.3 hPa East 8.0 km/h 24.1 km/h 45 % 0.0 mm 826 W/m2
14:20 20.4 °C 8.7 °C 1025.3 hPa East 6.4 km/h 24.1 km/h 47 % 0.0 mm 817 W/m2
14:25 20.3 °C 8.3 °C 1025.3 hPa North 8.0 km/h 24.1 km/h 46 % 0.0 mm 809 W/m2
14:30 19.9 °C 8.3 °C 1025.3 hPa NE 3.2 km/h 25.7 km/h 47 % 0.0 mm 814 W/m2
14:35 20.0 °C 8.0 °C 1025.3 hPa SSE 12.9 km/h 25.7 km/h 46 % 0.0 mm 810 W/m2
14:40 20.3 °C 8.9 °C 1024.9 hPa NNE 3.2 km/h 22.5 km/h 48 % 0.0 mm 807 W/m2
14:45 20.7 °C 8.6 °C 1024.9 hPa North 6.4 km/h 22.5 km/h 46 % 0.0 mm 809 W/m2
14:50 20.5 °C 8.5 °C 1024.9 hPa NE 1.6 km/h 20.9 km/h 46 % 0.0 mm 798 W/m2
14:55 20.1 °C 8.4 °C 1024.9 hPa ESE 12.9 km/h 24.1 km/h 47 % 0.0 mm 791 W/m2
15:00 20.2 °C 7.9 °C 1024.9 hPa ESE 9.7 km/h 24.1 km/h 45 % 0.0 mm 777 W/m2
15:05 20.6 °C 8.9 °C 1024.9 hPa East 1.6 km/h 19.3 km/h 47 % 0.0 mm 773 W/m2
15:10 20.6 °C 8.6 °C 1024.9 hPa ENE 4.8 km/h 20.9 km/h 46 % 0.0 mm 768 W/m2
15:15 21.0 °C 8.3 °C 1024.9 hPa East 8.0 km/h 20.9 km/h 44 % 0.0 mm 761 W/m2
15:20 20.8 °C 9.0 °C 1024.6 hPa North 3.2 km/h 19.3 km/h 47 % 0.0 mm 751 W/m2
15:25 21.1 °C 8.7 °C 1024.6 hPa ENE 19.3 km/h 25.7 km/h 45 % 0.0 mm 765 W/m2
15:30 20.8 °C 8.4 °C 1024.6 hPa NNE 4.8 km/h 25.7 km/h 45 % 0.0 mm 763 W/m2
15:35 20.6 °C 8.5 °C 1024.6 hPa ENE 19.3 km/h 27.4 km/h 46 % 0.0 mm 747 W/m2
15:40 20.8 °C 8.5 °C 1024.6 hPa ESE 16.1 km/h 27.4 km/h 45 % 0.0 mm 742 W/m2
15:45 20.4 °C 7.4 °C 1024.6 hPa East 12.9 km/h 24.1 km/h 43 % 0.0 mm 728 W/m2
15:50 20.4 °C 8.7 °C 1024.3 hPa ESE 16.1 km/h 24.1 km/h 47 % 0.0 mm 715 W/m2
15:55 20.6 °C 8.9 °C 1024.3 hPa ENE 8.0 km/h 24.1 km/h 47 % 0.0 mm 708 W/m2
16:00 20.7 °C 8.3 °C 1024.3 hPa ENE 16.1 km/h 24.1 km/h 45 % 0.0 mm 722 W/m2
16:05 20.9 °C 9.2 °C 1024.3 hPa NE 12.9 km/h 24.1 km/h 47 % 0.0 mm 698 W/m2
16:10 20.9 °C 8.8 °C 1024.3 hPa NE 8.0 km/h 24.1 km/h 46 % 0.0 mm 682 W/m2
16:15 20.8 °C 8.7 °C 1024.3 hPa ENE 11.3 km/h 24.1 km/h 46 % 0.0 mm 691 W/m2
16:20 20.9 °C 8.2 °C 1024.3 hPa NE 8.0 km/h 19.3 km/h 44 % 0.0 mm 663 W/m2
16:25 20.8 °C 10.0 °C 1023.9 hPa NNE 16.1 km/h 19.3 km/h 50 % 0.0 mm 635 W/m2
16:30 20.8 °C 9.1 °C 1023.9 hPa ENE 11.3 km/h 19.3 km/h 47 % 0.0 mm 638 W/m2
16:35 20.7 °C 9.0 °C 1023.9 hPa NNE 9.7 km/h 17.7 km/h 47 % 0.0 mm 629 W/m2
16:40 20.8 °C 9.1 °C 1023.9 hPa East 17.7 km/h 17.7 km/h 47 % 0.0 mm 629 W/m2
16:45 20.9 °C 8.5 °C 1023.9 hPa SE 11.3 km/h 17.7 km/h 45 % 0.0 mm 582 W/m2
16:50 20.4 °C 8.7 °C 1023.9 hPa ENE 4.8 km/h 20.9 km/h 47 % 0.0 mm 557 W/m2
16:55 20.7 °C 9.3 °C 1023.9 hPa ENE 4.8 km/h 20.9 km/h 48 % 0.0 mm 577 W/m2
17:00 20.4 °C 9.0 °C 1023.9 hPa NE 3.2 km/h 22.5 km/h 48 % 0.0 mm 555 W/m2
17:05 20.7 °C 9.6 °C 1023.6 hPa East 12.9 km/h 22.5 km/h 49 % 0.0 mm 557 W/m2
17:10 20.4 °C 9.7 °C 1023.6 hPa ESE 14.5 km/h 22.5 km/h 50 % 0.0 mm 559 W/m2
17:15 20.8 °C 9.4 °C 1023.6 hPa ENE 4.8 km/h 20.9 km/h 48 % 0.0 mm 557 W/m2
17:20 20.8 °C 9.4 °C 1023.6 hPa NE 16.1 km/h 20.9 km/h 48 % 0.0 mm 512 W/m2
17:25 20.6 °C 9.2 °C 1023.6 hPa NE 6.4 km/h 22.5 km/h 48 % 0.0 mm 520 W/m2
17:30 20.7 °C 9.3 °C 1023.6 hPa ENE 22.5 km/h 22.5 km/h 48 % 0.0 mm 512 W/m2
17:35 20.4 °C 8.7 °C 1023.6 hPa East 14.5 km/h 22.5 km/h 47 % 0.0 mm 490 W/m2
17:40 20.4 °C 9.7 °C 1023.6 hPa NNE 12.9 km/h 22.5 km/h 50 % 0.0 mm 469 W/m2
17:45 20.3 °C 9.3 °C 1023.6 hPa East 8.0 km/h 22.5 km/h 49 % 0.0 mm 457 W/m2
17:50 20.2 °C 8.9 °C 1023.6 hPa ENE 8.0 km/h 24.1 km/h 48 % 0.0 mm 431 W/m2
17:55 20.1 °C 9.4 °C 1023.6 hPa NE 9.7 km/h 24.1 km/h 50 % 0.0 mm 427 W/m2
18:00 20.2 °C 8.5 °C 1023.6 hPa NNE 11.3 km/h 20.9 km/h 47 % 0.0 mm 413 W/m2
18:05 20.1 °C 8.8 °C 1023.6 hPa NNE 4.8 km/h 20.9 km/h 48 % 0.0 mm 380 W/m2
18:10 20.1 °C 8.8 °C 1023.2 hPa ENE 4.8 km/h 17.7 km/h 48 % 0.0 mm 396 W/m2
18:15 19.8 °C 8.8 °C 1023.2 hPa East 9.7 km/h 20.9 km/h 49 % 0.0 mm 381 W/m2
18:20 19.8 °C 8.5 °C 1023.2 hPa NNE 11.3 km/h 24.1 km/h 48 % 0.0 mm 374 W/m2
18:25 19.8 °C 8.8 °C 1023.2 hPa NE 4.8 km/h 24.1 km/h 49 % 0.0 mm 352 W/m2
18:35 19.8 °C 8.4 °C 1023.2 hPa NE 12.9 km/h 25.7 km/h 48 % 0.0 mm 316 W/m2
18:40 19.7 °C 8.7 °C 1023.2 hPa East 11.3 km/h 25.7 km/h 49 % 0.0 mm 301 W/m2
18:45 19.7 °C 8.7 °C 1023.2 hPa North 1.6 km/h 19.3 km/h 49 % 0.0 mm 306 W/m2
18:50 19.8 °C 9.6 °C 1023.2 hPa ENE 12.9 km/h 19.3 km/h 52 % 0.0 mm 258 W/m2
18:55 19.6 °C 8.9 °C 1023.2 hPa East 9.7 km/h 19.3 km/h 50 % 0.0 mm 223 W/m2
19:00 19.4 °C 9.0 °C 1023.2 hPa ESE 8.0 km/h 17.7 km/h 51 % 0.0 mm 206 W/m2
19:05 19.2 °C 8.8 °C 1023.2 hPa East 11.3 km/h 19.3 km/h 51 % 0.0 mm 204 W/m2
19:10 19.2 °C 8.2 °C 1023.2 hPa ENE 8.0 km/h 22.5 km/h 49 % 0.0 mm 199 W/m2
19:15 19.1 °C 8.4 °C 1023.2 hPa East 16.1 km/h 22.5 km/h 50 % 0.0 mm 139 W/m2
19:20 19.1 °C 8.4 °C 1023.2 hPa ENE 11.3 km/h 19.3 km/h 50 % 0.0 mm 105 W/m2
19:25 19.0 °C 8.0 °C 1022.9 hPa ENE 6.4 km/h 17.7 km/h 49 % 0.0 mm 84 W/m2
19:30 18.9 °C 8.2 °C 1023.2 hPa ENE 8.0 km/h 17.7 km/h 50 % 0.0 mm 93 W/m2
19:35 18.8 °C 8.1 °C 1023.2 hPa East 8.0 km/h 20.9 km/h 50 % 0.0 mm 97 W/m2
19:40 18.7 °C 7.7 °C 1023.2 hPa ENE 8.0 km/h 20.9 km/h 49 % 0.0 mm 118 W/m2
19:45 18.6 °C 8.2 °C 1022.9 hPa NE 12.9 km/h 16.1 km/h 51 % 0.0 mm 79 W/m2
19:50 18.4 °C 8.1 °C 1023.2 hPa East 11.3 km/h 17.7 km/h 51 % 0.0 mm 109 W/m2
19:55 18.4 °C 8.1 °C 1022.9 hPa East 9.7 km/h 17.7 km/h 51 % 0.0 mm 83 W/m2
20:00 18.4 °C 8.4 °C 1022.9 hPa East 6.4 km/h 14.5 km/h 52 % 0.0 mm 97 W/m2
20:05 18.3 °C 8.3 °C 1022.9 hPa East 4.8 km/h 14.5 km/h 52 % 0.0 mm 86 W/m2
20:10 18.0 °C 8.3 °C 1022.9 hPa ENE 8.0 km/h 14.5 km/h 53 % 0.0 mm 63 W/m2
20:15 17.7 °C 8.3 °C 1022.9 hPa East 4.8 km/h 12.9 km/h 54 % 0.0 mm 51 W/m2
20:20 17.4 °C 8.8 °C 1022.9 hPa North 3.2 km/h 8.0 km/h 57 % 0.0 mm 44 W/m2
20:25 17.3 °C 8.9 °C 1022.9 hPa NE 3.2 km/h 11.3 km/h 58 % 0.0 mm 40 W/m2
20:30 17.1 °C 9.0 °C 1023.2 hPa NE 9.7 km/h 14.5 km/h 59 % 0.0 mm 33 W/m2
20:35 16.9 °C 8.9 °C 1023.2 hPa ENE 11.3 km/h 17.7 km/h 59 % 0.0 mm 30 W/m2
20:40 16.7 °C 8.9 °C 1022.9 hPa North 8.0 km/h 17.7 km/h 60 % 0.0 mm 25 W/m2
20:45 16.5 °C 8.9 °C 1023.2 hPa NNE 4.8 km/h 20.9 km/h 61 % 0.0 mm 19 W/m2
20:50 16.3 °C 8.8 °C 1023.2 hPa ENE 6.4 km/h 20.9 km/h 61 % 0.0 mm 16 W/m2
20:55 16.2 °C 8.6 °C 1023.2 hPa NNE 4.8 km/h 17.7 km/h 61 % 0.0 mm 11 W/m2
21:00 16.0 °C 8.7 °C 1023.2 hPa East 11.3 km/h 17.7 km/h 62 % 0.0 mm 7 W/m2
21:05 15.9 °C 8.6 °C 1023.2 hPa Calm   17.7 km/h 62 % 0.0 mm 0 W/m2
21:10 15.8 °C 8.6 °C 1023.2 hPa ENE 4.8 km/h 17.7 km/h 62 % 0.0 mm 0 W/m2
21:15 15.6 °C 8.6 °C 1023.2 hPa NE 3.2 km/h 17.7 km/h 63 % 0.0 mm 0 W/m2
21:20 15.5 °C 8.7 °C 1023.2 hPa ENE 14.5 km/h 17.7 km/h 64 % 0.0 mm 0 W/m2
21:25 15.4 °C 8.6 °C 1023.6 hPa North 6.4 km/h 14.5 km/h 64 % 0.0 mm 0 W/m2
21:30 15.2 °C 8.6 °C 1023.6 hPa NE 11.3 km/h 17.7 km/h 65 % 0.0 mm 0 W/m2
21:35 15.1 °C 8.7 °C 1023.6 hPa ENE 9.7 km/h 17.7 km/h 66 % 0.0 mm 0 W/m2
21:40 14.9 °C 8.6 °C 1023.6 hPa North 6.4 km/h 16.1 km/h 66 % 0.0 mm 0 W/m2
21:45 14.7 °C 8.6 °C 1023.9 hPa ENE 4.8 km/h 16.1 km/h 67 % 0.0 mm 0 W/m2
21:50 14.6 °C 8.5 °C 1023.9 hPa NE 6.4 km/h 16.1 km/h 67 % 0.0 mm 0 W/m2
21:55 14.6 °C 8.5 °C 1023.9 hPa ENE 6.4 km/h 17.7 km/h 67 % 0.0 mm 0 W/m2
22:00 14.6 °C 8.3 °C 1023.9 hPa NE 8.0 km/h 17.7 km/h 66 % 0.0 mm 0 W/m2
22:05 14.5 °C 8.2 °C 1023.9 hPa ENE 12.9 km/h 20.9 km/h 66 % 0.0 mm 0 W/m2
22:10 14.5 °C 8.4 °C 1023.9 hPa NE 1.6 km/h 22.5 km/h 67 % 0.0 mm 0 W/m2
22:20 14.1 °C 8.2 °C 1024.3 hPa ENE 14.5 km/h 16.1 km/h 68 % 0.0 mm 0 W/m2
22:25 14.0 °C 8.2 °C 1024.3 hPa ENE 6.4 km/h 16.1 km/h 68 % 0.0 mm 0 W/m2
22:30 13.8 °C 8.2 °C 1024.3 hPa ENE 3.2 km/h 17.7 km/h 69 % 0.0 mm 0 W/m2
22:35 13.8 °C 8.2 °C 1024.3 hPa East 11.3 km/h 19.3 km/h 69 % 0.0 mm 0 W/m2
22:40 13.6 °C 8.2 °C 1024.3 hPa ENE 12.9 km/h 19.3 km/h 70 % 0.0 mm 0 W/m2
22:45 13.4 °C 8.1 °C 1024.3 hPa Calm   16.1 km/h 70 % 0.0 mm 0 W/m2
22:50 13.3 °C 8.0 °C 1024.3 hPa ENE 12.9 km/h 16.1 km/h 70 % 0.0 mm 0 W/m2
22:55 13.3 °C 8.1 °C 1024.3 hPa East 4.8 km/h 16.1 km/h 71 % 0.0 mm 0 W/m2
23:00 12.9 °C 8.0 °C 1024.3 hPa NE 8.0 km/h 16.1 km/h 72 % 0.0 mm 0 W/m2
23:05 12.8 °C 7.9 °C 1024.3 hPa ENE 8.0 km/h 16.1 km/h 72 % 0.0 mm 0 W/m2
23:10 12.8 °C 7.9 °C 1024.6 hPa ENE 6.4 km/h 12.9 km/h 72 % 0.0 mm 0 W/m2
23:15 12.7 °C 7.8 °C 1024.6 hPa NE 8.0 km/h 14.5 km/h 72 % 0.0 mm 0 W/m2
23:20 12.6 °C 7.8 °C 1024.6 hPa ENE 1.6 km/h 14.5 km/h 73 % 0.0 mm 0 W/m2
23:25 12.7 °C 7.7 °C 1024.6 hPa East 14.5 km/h 14.5 km/h 72 % 0.0 mm 0 W/m2
23:30 12.5 °C 7.6 °C 1024.6 hPa East 1.6 km/h 14.5 km/h 72 % 0.0 mm 0 W/m2
23:35 12.5 °C 7.6 °C 1024.6 hPa ENE 6.4 km/h 14.5 km/h 72 % 0.0 mm 0 W/m2
23:40 12.5 °C 7.6 °C 1024.6 hPa East 11.3 km/h 16.1 km/h 72 % 0.0 mm 0 W/m2
23:45 12.4 °C 7.5 °C 1024.6 hPa East 8.0 km/h 19.3 km/h 72 % 0.0 mm 0 W/m2
23:50 12.3 °C 7.4 °C 1024.6 hPa NE 3.2 km/h 19.3 km/h 72 % 0.0 mm 0 W/m2
23:55 12.3 °C 7.4 °C 1024.6 hPa East 14.5 km/h 17.7 km/h 72 % 0.0 mm 0 W/m2
Avec l'autorisation de Weather Underground - 1.75 mb